Fort Severn Airport
CYER : now visible

Airfield :











YOU CAN JOIN US ON...

 
LOGIN :

Register | Disclaimer

   EN    FR    IT 

 









Legend :    VFR   Marginal VFR   IFR   Intensive IFR   Very Intensive IFR
Visi :
Ceiling :
>= 8 km
>= 3000ft
5 to 8 km
1000 to 3000 ft
1500m to 5 km
500 to 1000 ft
800 to 1500m
200 to 500 ft
< 800m
< 200 ft
Symbols :   Thunderstorms  Fog  Heavy snow  Heavy precipitations  Wind > 20 kt






- Airport Elevation : 48 ft
- IATA code : YER


CYER - Fort Severn

CURRENT METAR :
  • 100000Z AUTO 35008KT 9SM OVC010 M10/M11 A3002 RMK SLP168

EXPIRED METARs :
  • 092338Z AUTO 35010KT 9SM BKN012 M09/M11 A3002 RMK SLP167
  • 092300Z AUTO 36013KT 9SM FEW012 M09/M11 A3001 RMK SLP165
  • 092208Z AUTO 36013KT 9SM CLR M08/M11 A3000 RMK SLP162
  • 092157Z AUTO 36012G17KT 9SM -SN CLR M08/M11 A3000 RMK SLP161
  • 092154Z AUTO 36014KT 9SM CLR M08/M11 A3000 RMK SLP161
  • 092144Z AUTO 35012KT 9SM -SN CLR M07/M11 A3000 RMK SLP160
  • 092117Z AUTO 36013G19KT 9SM -SN CLR M08/M11 A2999 RMK SLP159

Expired Forecast.



MET'MAP, your aeronautical weather chart ! - Copyright ORBIFLY December 2007 - Disclaimer

ORBIFLY MET'MAP TEAM :

Programming & Development : Alexandra Zaïnal
Concept & original design : Baudouin d'Aumeries
Assistance for programming : Marc-Olivier Méhu
Technical & hardware support : Manuel Goepfert

Contact : metmap@orbifly.com




SOURCES & CREDITS :

   NOAA       Earth
Advisory